sensor_id;sensor_type;location;lat;lon;timestamp;pressure;altitude;pressure_sealevel;temperature;humidity
62703;BME280;66022;50.448;18.122;2023-04-10T00:00:01;100092.16;;;7.47;98.11
62703;BME280;66022;50.448;18.122;2023-04-10T00:04:15;100091.32;;;7.49;97.90
62703;BME280;66022;50.448;18.122;2023-04-10T00:08:29;100090.25;;;7.48;99.36
62703;BME280;66022;50.448;18.122;2023-04-10T00:12:43;100088.01;;;7.51;98.03
62703;BME280;66022;50.448;18.122;2023-04-10T00:16:57;100085.24;;;7.52;100.00
62703;BME280;66022;50.448;18.122;2023-04-10T00:21:11;100082.90;;;7.54;98.23
62703;BME280;66022;50.448;18.122;2023-04-10T00:25:25;100079.81;;;7.56;97.74
62703;BME280;66022;50.448;18.122;2023-04-10T00:29:39;100075.98;;;7.57;98.54
62703;BME280;66022;50.448;18.122;2023-04-10T00:33:53;100074.39;;;7.60;97.79
62703;BME280;66022;50.448;18.122;2023-04-10T00:38:07;100073.64;;;7.59;99.58
62703;BME280;66022;50.448;18.122;2023-04-10T00:42:21;100073.81;;;7.61;98.04
62703;BME280;66022;50.448;18.122;2023-04-10T00:46:36;100072.89;;;7.61;100.00
62703;BME280;66022;50.448;18.122;2023-04-10T00:50:49;100071.64;;;7.63;98.02
62703;BME280;66022;50.448;18.122;2023-04-10T00:55:04;100070.99;;;7.64;97.65
62703;BME280;66022;50.448;18.122;2023-04-10T00:59:17;100070.39;;;7.65;98.40
62703;BME280;66022;50.448;18.122;2023-04-10T01:03:31;100069.24;;;7.66;97.92
62703;BME280;66022;50.448;18.122;2023-04-10T01:12:03;100067.72;;;7.67;98.05
62703;BME280;66022;50.448;18.122;2023-04-10T01:16:21;100066.40;;;7.66;100.00
62703;BME280;66022;50.448;18.122;2023-04-10T01:20:31;100065.22;;;7.67;98.20
62703;BME280;66022;50.448;18.122;2023-04-10T01:28:56;100063.70;;;7.67;99.06
62703;BME280;66022;50.448;18.122;2023-04-10T01:33:11;100063.47;;;7.68;98.20
62703;BME280;66022;50.448;18.122;2023-04-10T01:37:24;100062.72;;;7.68;100.00
62703;BME280;66022;50.448;18.122;2023-04-10T01:41:37;100062.05;;;7.68;98.79
62703;BME280;66022;50.448;18.122;2023-04-10T01:45:51;100062.03;;;7.67;100.00
62703;BME280;66022;50.448;18.122;2023-04-10T01:50:05;100062.62;;;7.67;98.76
62703;BME280;66022;50.448;18.122;2023-04-10T01:54:19;100062.87;;;7.67;98.34
62703;BME280;66022;50.448;18.122;2023-04-10T01:58:36;100062.45;;;7.65;99.67
62703;BME280;66022;50.448;18.122;2023-04-10T02:02:47;100062.52;;;7.65;98.47
62703;BME280;66022;50.448;18.122;2023-04-10T02:11:17;100064.04;;;7.65;98.97
62703;BME280;66022;50.448;18.122;2023-04-10T02:15:29;100064.79;;;7.65;98.53
62703;BME280;66022;50.448;18.122;2023-04-10T02:19:44;100064.79;;;7.65;99.41
62703;BME280;66022;50.448;18.122;2023-04-10T02:23:57;100064.78;;;7.66;98.53
62703;BME280;66022;50.448;18.122;2023-04-10T02:28:11;100066.39;;;7.64;100.00
62703;BME280;66022;50.448;18.122;2023-04-10T02:32:25;100068.30;;;7.65;98.58
62703;BME280;66022;50.448;18.122;2023-04-10T02:36:39;100069.81;;;7.65;100.00
62703;BME280;66022;50.448;18.122;2023-04-10T02:40:53;100071.15;;;7.66;99.29
62703;BME280;66022;50.448;18.122;2023-04-10T02:45:08;100072.25;;;7.66;99.26
62703;BME280;66022;50.448;18.122;2023-04-10T02:49:21;100071.31;;;7.65;99.94
62703;BME280;66022;50.448;18.122;2023-04-10T02:53:35;100071.31;;;7.65;99.28
62703;BME280;66022;50.448;18.122;2023-04-10T02:57:49;100070.57;;;7.64;100.00
62703;BME280;66022;50.448;18.122;2023-04-10T03:02:03;100070.64;;;7.65;99.23
62703;BME280;66022;50.448;18.122;2023-04-10T03:06:17;100069.54;;;7.62;100.00
62703;BME280;66022;50.448;18.122;2023-04-10T03:10:33;100068.97;;;7.63;99.70
62703;BME280;66022;50.448;18.122;2023-04-10T03:14:45;100068.63;;;7.64;99.48
62703;BME280;66022;50.448;18.122;2023-04-10T03:18:59;100069.30;;;7.63;100.00
62703;BME280;66022;50.448;18.122;2023-04-10T03:23:15;100069.96;;;7.64;99.82
62703;BME280;66022;50.448;18.122;2023-04-10T03:27:27;100069.39;;;7.63;100.00
62703;BME280;66022;50.448;18.122;2023-04-10T03:31:41;100068.41;;;7.64;99.80
62703;BME280;66022;50.448;18.122;2023-04-10T03:35:55;100067.47;;;7.62;100.00
62703;BME280;66022;50.448;18.122;2023-04-10T03:40:09;100067.39;;;7.62;100.00
62703;BME280;66022;50.448;18.122;2023-04-10T03:44:23;100067.22;;;7.63;99.91
62703;BME280;66022;50.448;18.122;2023-04-10T03:48:37;100065.54;;;7.61;100.00
62703;BME280;66022;50.448;18.122;2023-04-10T03:52:51;100065.03;;;7.61;99.66
62703;BME280;66022;50.448;18.122;2023-04-10T03:57:05;100064.95;;;7.61;100.00
62703;BME280;66022;50.448;18.122;2023-04-10T04:01:19;100065.61;;;7.62;99.91
62703;BME280;66022;50.448;18.122;2023-04-10T04:05:33;100068.97;;;7.61;99.92
62703;BME280;66022;50.448;18.122;2023-04-10T04:09:47;100073.97;;;7.60;100.00
62703;BME280;66022;50.448;18.122;2023-04-10T04:14:01;100077.06;;;7.60;100.00
62703;BME280;66022;50.448;18.122;2023-04-10T04:18:15;100079.49;;;7.55;100.00
62703;BME280;66022;50.448;18.122;2023-04-10T04:22:32;100079.91;;;7.56;100.00
62703;BME280;66022;50.448;18.122;2023-04-10T04:26:43;100081.42;;;7.55;100.00
62703;BME280;66022;50.448;18.122;2023-04-10T04:30:57;100083.23;;;7.56;100.00
62703;BME280;66022;50.448;18.122;2023-04-10T04:35:11;100085.51;;;7.57;100.00
62703;BME280;66022;50.448;18.122;2023-04-10T04:39:25;100090.88;;;7.58;100.00
62703;BME280;66022;50.448;18.122;2023-04-10T04:43:39;100095.72;;;7.59;100.00
62703;BME280;66022;50.448;18.122;2023-04-10T04:47:53;100099.64;;;7.60;100.00
62703;BME280;66022;50.448;18.122;2023-04-10T04:52:07;100102.17;;;7.61;100.00
62703;BME280;66022;50.448;18.122;2023-04-10T04:56:21;100102.75;;;7.59;100.00
62703;BME280;66022;50.448;18.122;2023-04-10T05:00:35;100103.66;;;7.62;100.00
62703;BME280;66022;50.448;18.122;2023-04-10T05:04:49;100104.52;;;7.64;100.00
62703;BME280;66022;50.448;18.122;2023-04-10T05:09:03;100104.86;;;7.66;100.00
62703;BME280;66022;50.448;18.122;2023-04-10T05:13:17;100104.80;;;7.70;100.00
62703;BME280;66022;50.448;18.122;2023-04-10T05:17:31;100105.06;;;7.74;100.00
62703;BME280;66022;50.448;18.122;2023-04-10T05:21:45;100106.14;;;7.78;100.00
62703;BME280;66022;50.448;18.122;2023-04-10T05:25:59;100106.84;;;7.81;100.00
62703;BME280;66022;50.448;18.122;2023-04-10T05:30:13;100107.92;;;7.86;100.00
62703;BME280;66022;50.448;18.122;2023-04-10T05:34:30;100109.63;;;7.91;99.81
62703;BME280;66022;50.448;18.122;2023-04-10T05:38:41;100110.63;;;7.93;100.00
62703;BME280;66022;50.448;18.122;2023-04-10T05:42:55;100111.63;;;7.97;99.81
62703;BME280;66022;50.448;18.122;2023-04-10T05:47:09;100110.05;;;8.01;100.00
62703;BME280;66022;50.448;18.122;2023-04-10T05:51:23;100108.14;;;8.06;99.82
62703;BME280;66022;50.448;18.122;2023-04-10T05:55:37;100105.47;;;8.10;99.54
62703;BME280;66022;50.448;18.122;2023-04-10T05:59:51;100104.30;;;8.14;99.83
62703;BME280;66022;50.448;18.122;2023-04-10T06:04:05;100107.24;;;8.16;99.35
62703;BME280;66022;50.448;18.122;2023-04-10T06:08:20;100110.83;;;8.16;100.00
62703;BME280;66022;50.448;18.122;2023-04-10T06:12:33;100113.08;;;8.18;99.55
62703;BME280;66022;50.448;18.122;2023-04-10T06:16:48;100116.00;;;8.18;100.00
62703;BME280;66022;50.448;18.122;2023-04-10T06:21:01;100119.22;;;8.20;99.87
62703;BME280;66022;50.448;18.122;2023-04-10T06:25:16;100121.96;;;8.22;99.25
62703;BME280;66022;50.448;18.122;2023-04-10T06:29:29;100123.32;;;8.23;99.93
62703;BME280;66022;50.448;18.122;2023-04-10T06:33:43;100124.98;;;8.25;99.63
62703;BME280;66022;50.448;18.122;2023-04-10T06:37:57;100128.75;;;8.25;100.00
62703;BME280;66022;50.448;18.122;2023-04-10T06:42:11;100130.02;;;8.27;99.35
62703;BME280;66022;50.448;18.122;2023-04-10T06:46:26;100131.02;;;8.27;100.00
62703;BME280;66022;50.448;18.122;2023-04-10T06:50:39;100133.18;;;8.29;99.96
62703;BME280;66022;50.448;18.122;2023-04-10T06:54:53;100135.30;;;8.30;99.38
62703;BME280;66022;50.448;18.122;2023-04-10T06:59:07;100134.97;;;8.32;99.63
62703;BME280;66022;50.448;18.122;2023-04-10T07:03:21;100136.89;;;8.36;99.07
62703;BME280;66022;50.448;18.122;2023-04-10T07:07:35;100139.50;;;8.39;100.00
62703;BME280;66022;50.448;18.122;2023-04-10T07:11:49;100141.03;;;8.43;98.65
62703;BME280;66022;50.448;18.122;2023-04-10T07:16:03;100139.69;;;8.45;100.00
62703;BME280;66022;50.448;18.122;2023-04-10T07:20:17;100140.62;;;8.51;98.33
62703;BME280;66022;50.448;18.122;2023-04-10T07:24:31;100142.55;;;8.55;97.88
62703;BME280;66022;50.448;18.122;2023-04-10T07:28:45;100143.78;;;8.58;98.45
62703;BME280;66022;50.448;18.122;2023-04-10T07:33:00;100144.89;;;8.62;97.74
62703;BME280;66022;50.448;18.122;2023-04-10T07:37:13;100146.15;;;8.65;99.46
62703;BME280;66022;50.448;18.122;2023-04-10T07:41:27;100147.58;;;8.69;97.55
62703;BME280;66022;50.448;18.122;2023-04-10T07:45:41;100148.15;;;8.72;97.28
62703;BME280;66022;50.448;18.122;2023-04-10T07:49:55;100149.25;;;8.77;97.42
62703;BME280;66022;50.448;18.122;2023-04-10T07:54:09;100147.47;;;8.82;97.00
62703;BME280;66022;50.448;18.122;2023-04-10T07:58:23;100147.64;;;8.83;97.86
62703;BME280;66022;50.448;18.122;2023-04-10T08:02:37;100149.31;;;8.89;96.99
62703;BME280;66022;50.448;18.122;2023-04-10T08:06:51;100149.49;;;8.92;99.88
62703;BME280;66022;50.448;18.122;2023-04-10T08:11:06;100149.63;;;8.97;96.80
62703;BME280;66022;50.448;18.122;2023-04-10T08:15:22;100149.72;;;9.00;96.09
62703;BME280;66022;50.448;18.122;2023-04-10T08:19:33;100150.31;;;9.03;96.49
62703;BME280;66022;50.448;18.122;2023-04-10T08:23:51;100151.20;;;9.06;95.66
62703;BME280;66022;50.448;18.122;2023-04-10T08:28:01;100151.87;;;9.06;96.59
62703;BME280;66022;50.448;18.122;2023-04-10T08:32:16;100153.64;;;9.09;95.86
62703;BME280;66022;50.448;18.122;2023-04-10T08:36:31;100153.56;;;9.09;99.54
62703;BME280;66022;50.448;18.122;2023-04-10T08:40:43;100151.72;;;9.12;95.63
62703;BME280;66022;50.448;18.122;2023-04-10T08:45:00;100150.86;;;9.15;95.20
62703;BME280;66022;50.448;18.122;2023-04-10T08:49:55;100150.76;;;9.18;95.63
62703;BME280;66022;50.448;18.122;2023-04-10T08:53:26;100151.93;;;9.21;95.23
62703;BME280;66022;50.448;18.122;2023-04-10T08:57:39;100151.68;;;9.24;96.69
62703;BME280;66022;50.448;18.122;2023-04-10T09:01:54;100151.34;;;9.30;94.46
62703;BME280;66022;50.448;18.122;2023-04-10T09:06:09;100149.82;;;9.32;98.08
62703;BME280;66022;50.448;18.122;2023-04-10T09:10:22;100148.61;;;9.36;94.74
62703;BME280;66022;50.448;18.122;2023-04-10T09:14:36;100147.11;;;9.41;94.00
62703;BME280;66022;50.448;18.122;2023-04-10T09:18:50;100144.67;;;9.45;94.69
62703;BME280;66022;50.448;18.122;2023-04-10T09:23:18;100141.04;;;9.52;94.53
62703;BME280;66022;50.448;18.122;2023-04-10T09:31:35;100130.94;;;9.73;92.72
62703;BME280;66022;50.448;18.122;2023-04-10T09:35:46;100126.87;;;9.85;93.68
62703;BME280;66022;50.448;18.122;2023-04-10T09:40:00;100123.68;;;9.98;91.74
62703;BME280;66022;50.448;18.122;2023-04-10T09:44:16;100122.85;;;10.12;91.33
62703;BME280;66022;50.448;18.122;2023-04-10T09:48:28;100121.87;;;10.21;91.00
62703;BME280;66022;50.448;18.122;2023-04-10T09:52:42;100121.06;;;10.33;89.97
62703;BME280;66022;50.448;18.122;2023-04-10T09:56:57;100119.56;;;10.41;90.82
62703;BME280;66022;50.448;18.122;2023-04-10T10:01:10;100114.83;;;10.54;89.24
62703;BME280;66022;50.448;18.122;2023-04-10T10:05:24;100111.08;;;10.71;89.47
62703;BME280;66022;50.448;18.122;2023-04-10T10:09:38;100106.27;;;10.88;87.96
62703;BME280;66022;50.448;18.122;2023-04-10T10:13:52;100103.05;;;11.01;88.97
62703;BME280;66022;50.448;18.122;2023-04-10T10:22:20;100095.95;;;11.21;88.17
62703;BME280;66022;50.448;18.122;2023-04-10T10:26:34;100092.89;;;11.31;88.67
62703;BME280;66022;50.448;18.122;2023-04-10T10:30:48;100090.11;;;11.44;86.83
62703;BME280;66022;50.448;18.122;2023-04-10T10:35:02;100087.25;;;11.56;87.04
62703;BME280;66022;50.448;18.122;2023-04-10T10:47:53;100076.95;;;11.78;87.58
62703;BME280;66022;50.448;18.122;2023-04-10T10:51:58;100073.85;;;11.83;86.14
62703;BME280;66022;50.448;18.122;2023-04-10T11:01:02;100069.53;;;11.86;86.02
62703;BME280;66022;50.448;18.122;2023-04-10T11:04:43;100068.33;;;11.86;86.65
62703;BME280;66022;50.448;18.122;2023-04-10T11:08:54;100066.30;;;11.82;86.67
62703;BME280;66022;50.448;18.122;2023-04-10T11:21:40;100055.44;;;11.76;86.89
62703;BME280;66022;50.448;18.122;2023-04-10T11:25:53;100051.43;;;11.74;87.77
62703;BME280;66022;50.448;18.122;2023-04-10T11:30:21;100046.95;;;11.73;86.82
62703;BME280;66022;50.448;18.122;2023-04-10T11:34:18;100042.80;;;11.77;85.79
62703;BME280;66022;50.448;18.122;2023-04-10T11:38:32;100037.70;;;11.86;86.02
62703;BME280;66022;50.448;18.122;2023-04-10T11:42:46;100031.55;;;12.04;83.83
62703;BME280;66022;50.448;18.122;2023-04-10T11:47:00;100026.65;;;12.20;84.80
62703;BME280;66022;50.448;18.122;2023-04-10T11:51:14;100022.42;;;12.37;83.69
62703;BME280;66022;50.448;18.122;2023-04-10T11:59:48;100012.87;;;12.67;82.51
62703;BME280;66022;50.448;18.122;2023-04-10T12:03:56;100008.54;;;12.80;81.45
62703;BME280;66022;50.448;18.122;2023-04-10T12:08:10;100004.91;;;12.86;82.87
62703;BME280;66022;50.448;18.122;2023-04-10T12:16:38;99996.45;;;13.05;82.31
62703;BME280;66022;50.448;18.122;2023-04-10T12:20:52;99991.49;;;13.15;81.35
62703;BME280;66022;50.448;18.122;2023-04-10T12:25:06;99986.24;;;13.29;81.50
62703;BME280;66022;50.448;18.122;2023-04-10T12:29:24;99980.39;;;13.46;80.32
62703;BME280;66022;50.448;18.122;2023-04-10T12:33:34;99975.42;;;13.60;79.08
62703;BME280;66022;50.448;18.122;2023-04-10T12:37:51;99971.26;;;13.69;79.17
62703;BME280;66022;50.448;18.122;2023-04-10T12:50:30;99962.36;;;13.77;78.69
62703;BME280;66022;50.448;18.122;2023-04-10T12:54:44;99959.09;;;13.76;77.77
62703;BME280;66022;50.448;18.122;2023-04-10T13:03:12;99950.93;;;13.68;79.82
62703;BME280;66022;50.448;18.122;2023-04-10T13:07:26;99945.48;;;13.67;79.89
62703;BME280;66022;50.448;18.122;2023-04-10T13:11:40;99940.23;;;13.66;78.85
62703;BME280;66022;50.448;18.122;2023-04-10T13:15:54;99935.58;;;13.61;79.20
62703;BME280;66022;50.448;18.122;2023-04-10T13:20:08;99930.87;;;13.56;78.95
62703;BME280;66022;50.448;18.122;2023-04-10T13:24:22;99926.25;;;13.51;77.98
62703;BME280;66022;50.448;18.122;2023-04-10T13:28:36;99921.58;;;13.42;79.38
62703;BME280;66022;50.448;18.122;2023-04-10T13:32:50;99917.01;;;13.41;79.00
62703;BME280;66022;50.448;18.122;2023-04-10T13:37:04;99911.47;;;13.40;79.32
62703;BME280;66022;50.448;18.122;2023-04-10T13:41:18;99905.81;;;13.41;78.35
62703;BME280;66022;50.448;18.122;2023-04-10T13:45:32;99900.30;;;13.41;78.18
62703;BME280;66022;50.448;18.122;2023-04-10T13:49:46;99894.09;;;13.47;79.52
62703;BME280;66022;50.448;18.122;2023-04-10T13:54:00;99888.20;;;13.57;77.53
62703;BME280;66022;50.448;18.122;2023-04-10T13:58:14;99882.70;;;13.61;76.39
62703;BME280;66022;50.448;18.122;2023-04-10T14:02:28;99877.51;;;13.66;77.05
62703;BME280;66022;50.448;18.122;2023-04-10T14:06:42;99871.66;;;13.67;78.93
62703;BME280;66022;50.448;18.122;2023-04-10T14:10:56;99866.61;;;13.73;77.29
62703;BME280;66022;50.448;18.122;2023-04-10T14:15:10;99862.03;;;13.80;76.93
62703;BME280;66022;50.448;18.122;2023-04-10T14:19:24;99857.89;;;13.90;75.80
62703;BME280;66022;50.448;18.122;2023-04-10T14:23:39;99853.33;;;13.97;75.97
62703;BME280;66022;50.448;18.122;2023-04-10T14:27:52;99849.08;;;14.01;76.47
62703;BME280;66022;50.448;18.122;2023-04-10T14:32:06;99843.77;;;14.03;75.59
62703;BME280;66022;50.448;18.122;2023-04-10T14:36:20;99839.47;;;13.97;75.79
62703;BME280;66022;50.448;18.122;2023-04-10T14:40:34;99834.04;;;13.94;77.67
62703;BME280;66022;50.448;18.122;2023-04-10T14:44:48;99829.42;;;13.90;78.57
62703;BME280;66022;50.448;18.122;2023-04-10T14:49:02;99823.94;;;13.83;77.49
62703;BME280;66022;50.448;18.122;2023-04-10T14:53:16;99818.37;;;13.77;77.96
62703;BME280;66022;50.448;18.122;2023-04-10T14:57:30;99813.65;;;13.70;79.24
62703;BME280;66022;50.448;18.122;2023-04-10T15:01:44;99808.12;;;13.65;79.54
62703;BME280;66022;50.448;18.122;2023-04-10T15:05:58;99802.45;;;13.58;80.11
62703;BME280;66022;50.448;18.122;2023-04-10T15:10:12;99796.22;;;13.56;80.35
62703;BME280;66022;50.448;18.122;2023-04-10T15:14:26;99790.48;;;13.55;79.13
62703;BME280;66022;50.448;18.122;2023-04-10T15:18:40;99786.22;;;13.53;78.16
62703;BME280;66022;50.448;18.122;2023-04-10T15:22:54;99781.81;;;13.54;77.28
62703;BME280;66022;50.448;18.122;2023-04-10T15:27:08;99778.16;;;13.55;76.79
62703;BME280;66022;50.448;18.122;2023-04-10T15:31:22;99773.52;;;13.55;76.85
62703;BME280;66022;50.448;18.122;2023-04-10T15:35:36;99769.56;;;13.55;76.86
62703;BME280;66022;50.448;18.122;2023-04-10T15:39:50;99766.31;;;13.53;76.57
62703;BME280;66022;50.448;18.122;2023-04-10T15:44:04;99763.28;;;13.52;77.75
62703;BME280;66022;50.448;18.122;2023-04-10T15:48:18;99758.85;;;13.47;77.23
62703;BME280;66022;50.448;18.122;2023-04-10T15:52:32;99753.64;;;13.47;76.19
62703;BME280;66022;50.448;18.122;2023-04-10T15:56:46;99749.44;;;13.43;76.04
62703;BME280;66022;50.448;18.122;2023-04-10T16:01:00;99744.50;;;13.41;76.58
62703;BME280;66022;50.448;18.122;2023-04-10T16:05:14;99739.85;;;13.38;76.65
62703;BME280;66022;50.448;18.122;2023-04-10T16:09:28;99734.64;;;13.35;77.47
62703;BME280;66022;50.448;18.122;2023-04-10T16:13:42;99728.88;;;13.32;77.89
62703;BME280;66022;50.448;18.122;2023-04-10T16:17:56;99722.28;;;13.27;78.11
62703;BME280;66022;50.448;18.122;2023-04-10T16:22:13;99717.56;;;13.24;78.49
62703;BME280;66022;50.448;18.122;2023-04-10T16:26:24;99713.26;;;13.18;79.75
62703;BME280;66022;50.448;18.122;2023-04-10T16:30:38;99709.34;;;13.15;78.93
62703;BME280;66022;50.448;18.122;2023-04-10T16:34:52;99706.03;;;13.14;78.41
62703;BME280;66022;50.448;18.122;2023-04-10T16:39:06;99702.64;;;13.10;79.50
62703;BME280;66022;50.448;18.122;2023-04-10T16:43:20;99700.02;;;13.07;78.99
62703;BME280;66022;50.448;18.122;2023-04-10T16:47:34;99696.35;;;13.02;79.80
62703;BME280;66022;50.448;18.122;2023-04-10T16:51:48;99692.24;;;12.98;80.12
62703;BME280;66022;50.448;18.122;2023-04-10T16:56:02;99687.56;;;12.90;79.43
62703;BME280;66022;50.448;18.122;2023-04-10T17:00:16;99682.89;;;12.84;80.45
62703;BME280;66022;50.448;18.122;2023-04-10T17:04:33;99679.16;;;12.78;80.94
62703;BME280;66022;50.448;18.122;2023-04-10T17:08:44;99676.65;;;12.66;81.25
62703;BME280;66022;50.448;18.122;2023-04-10T17:12:58;99675.67;;;12.57;81.84
62703;BME280;66022;50.448;18.122;2023-04-10T17:17:12;99675.19;;;12.46;82.57
62703;BME280;66022;50.448;18.122;2023-04-10T17:21:26;99674.33;;;12.36;82.09
62703;BME280;66022;50.448;18.122;2023-04-10T17:25:40;99674.69;;;12.27;82.64
62703;BME280;66022;50.448;18.122;2023-04-10T17:29:54;99675.10;;;12.17;83.41
62703;BME280;66022;50.448;18.122;2023-04-10T17:34:08;99676.45;;;12.05;83.42
62703;BME280;66022;50.448;18.122;2023-04-10T17:38:22;99676.59;;;11.88;84.10
62703;BME280;66022;50.448;18.122;2023-04-10T17:42:36;99676.20;;;11.78;83.78
62703;BME280;66022;50.448;18.122;2023-04-10T17:46:50;99676.01;;;11.68;85.00
62703;BME280;66022;50.448;18.122;2023-04-10T17:51:04;99676.49;;;11.60;84.16
62703;BME280;66022;50.448;18.122;2023-04-10T17:55:18;99677.72;;;11.49;84.77
62703;BME280;66022;50.448;18.122;2023-04-10T17:59:32;99678.89;;;11.36;85.36
62703;BME280;66022;50.448;18.122;2023-04-10T18:03:46;99679.14;;;11.22;85.95
62703;BME280;66022;50.448;18.122;2023-04-10T18:08:00;99678.97;;;11.04;86.73
62703;BME280;66022;50.448;18.122;2023-04-10T18:12:14;99678.30;;;10.93;86.61
62703;BME280;66022;50.448;18.122;2023-04-10T18:16:28;99676.09;;;10.79;89.06
62703;BME280;66022;50.448;18.122;2023-04-10T18:20:42;99675.42;;;10.69;87.21
62703;BME280;66022;50.448;18.122;2023-04-10T18:24:56;99677.04;;;10.57;86.83
62703;BME280;66022;50.448;18.122;2023-04-10T18:29:10;99677.45;;;10.41;87.39
62703;BME280;66022;50.448;18.122;2023-04-10T18:33:24;99676.82;;;10.25;87.95
62703;BME280;66022;50.448;18.122;2023-04-10T18:37:38;99676.43;;;10.10;88.76
62703;BME280;66022;50.448;18.122;2023-04-10T18:41:52;99675.73;;;9.99;88.23
62703;BME280;66022;50.448;18.122;2023-04-10T18:46:06;99674.13;;;9.86;91.53
62703;BME280;66022;50.448;18.122;2023-04-10T18:50:20;99673.58;;;9.78;88.77
62703;BME280;66022;50.448;18.122;2023-04-10T18:54:34;99673.91;;;9.71;88.98
62703;BME280;66022;50.448;18.122;2023-04-10T18:58:48;99674.42;;;9.62;89.56
62703;BME280;66022;50.448;18.122;2023-04-10T19:03:02;99674.56;;;9.57;88.69
62703;BME280;66022;50.448;18.122;2023-04-10T19:07:19;99673.21;;;9.51;90.24
62703;BME280;66022;50.448;18.122;2023-04-10T19:11:31;99671.94;;;9.45;89.10
62703;BME280;66022;50.448;18.122;2023-04-10T19:15:45;99669.36;;;9.37;90.33
62703;BME280;66022;50.448;18.122;2023-04-10T19:20:00;99667.56;;;9.29;89.63
62703;BME280;66022;50.448;18.122;2023-04-10T19:24:12;99665.66;;;9.22;89.58
62703;BME280;66022;50.448;18.122;2023-04-10T19:28:28;99663.64;;;9.12;91.05
62703;BME280;66022;50.448;18.122;2023-04-10T19:32:42;99663.09;;;9.08;90.61
62703;BME280;66022;50.448;18.122;2023-04-10T19:36:56;99662.47;;;9.02;92.65
62703;BME280;66022;50.448;18.122;2023-04-10T19:41:13;99659.90;;;8.99;90.79
62703;BME280;66022;50.448;18.122;2023-04-10T19:45:24;99655.17;;;8.94;90.77
62703;BME280;66022;50.448;18.122;2023-04-10T19:49:38;99649.95;;;8.90;91.46
62703;BME280;66022;50.448;18.122;2023-04-10T19:53:52;99645.47;;;8.83;90.93
62703;BME280;66022;50.448;18.122;2023-04-10T19:58:06;99642.38;;;8.74;91.84
62703;BME280;66022;50.448;18.122;2023-04-10T20:02:20;99639.39;;;8.69;91.27
62703;BME280;66022;50.448;18.122;2023-04-10T20:06:34;99633.34;;;8.62;95.94
62703;BME280;66022;50.448;18.122;2023-04-10T20:10:48;99628.93;;;8.60;91.63
62703;BME280;66022;50.448;18.122;2023-04-10T20:15:02;99624.66;;;8.58;91.77
62703;BME280;66022;50.448;18.122;2023-04-10T20:19:16;99621.59;;;8.55;92.62
62703;BME280;66022;50.448;18.122;2023-04-10T20:23:30;99617.36;;;8.51;92.38
62703;BME280;66022;50.448;18.122;2023-04-10T20:27:44;99612.68;;;8.48;93.71
62703;BME280;66022;50.448;18.122;2023-04-10T20:31:58;99606.84;;;8.47;92.51
62703;BME280;66022;50.448;18.122;2023-04-10T20:36:12;99602.91;;;8.44;96.34
62703;BME280;66022;50.448;18.122;2023-04-10T20:40:26;99599.14;;;8.45;92.76
62703;BME280;66022;50.448;18.122;2023-04-10T20:44:40;99595.94;;;8.48;91.53
62703;BME280;66022;50.448;18.122;2023-04-10T20:48:54;99593.81;;;8.50;92.51
62703;BME280;66022;50.448;18.122;2023-04-10T20:53:08;99591.96;;;8.53;91.66
62703;BME280;66022;50.448;18.122;2023-04-10T20:57:25;99590.47;;;8.51;93.77
62703;BME280;66022;50.448;18.122;2023-04-10T21:01:36;99588.39;;;8.48;92.71
62703;BME280;66022;50.448;18.122;2023-04-10T21:05:50;99585.75;;;8.45;95.24
62703;BME280;66022;50.448;18.122;2023-04-10T21:10:05;99583.73;;;8.44;93.39
62703;BME280;66022;50.448;18.122;2023-04-10T21:14:18;99580.91;;;8.43;93.21
62703;BME280;66022;50.448;18.122;2023-04-10T21:18:32;99578.72;;;8.40;94.36
62703;BME280;66022;50.448;18.122;2023-04-10T21:22:46;99575.80;;;8.40;93.21
62703;BME280;66022;50.448;18.122;2023-04-10T21:27:01;99572.88;;;8.40;94.94
62703;BME280;66022;50.448;18.122;2023-04-10T21:31:19;99570.53;;;8.42;92.78
62703;BME280;66022;50.448;18.122;2023-04-10T21:35:28;99568.84;;;8.43;91.10
62703;BME280;66022;50.448;18.122;2023-04-10T21:39:42;99565.58;;;8.40;92.23
62703;BME280;66022;50.448;18.122;2023-04-10T21:43:56;99562.06;;;8.39;91.75
62703;BME280;66022;50.448;18.122;2023-04-10T21:48:10;99554.58;;;8.35;92.51
62703;BME280;66022;50.448;18.122;2023-04-10T21:52:24;99549.27;;;8.36;91.63
62703;BME280;66022;50.448;18.122;2023-04-10T21:56:38;99544.20;;;8.33;95.02
62703;BME280;66022;50.448;18.122;2023-04-10T22:00:52;99537.54;;;8.30;92.04
62703;BME280;66022;50.448;18.122;2023-04-10T22:05:06;99530.89;;;8.24;91.93
62703;BME280;66022;50.448;18.122;2023-04-10T22:09:20;99524.00;;;8.18;92.60
62703;BME280;66022;50.448;18.122;2023-04-10T22:13:34;99516.24;;;8.13;92.32
62703;BME280;66022;50.448;18.122;2023-04-10T22:17:48;99508.76;;;8.06;93.21
62703;BME280;66022;50.448;18.122;2023-04-10T22:22:02;99500.89;;;8.00;92.49
62703;BME280;66022;50.448;18.122;2023-04-10T22:26:16;99492.85;;;7.88;96.93
62703;BME280;66022;50.448;18.122;2023-04-10T22:30:30;99485.28;;;7.83;93.15
62703;BME280;66022;50.448;18.122;2023-04-10T22:34:44;99479.12;;;7.78;93.28
62703;BME280;66022;50.448;18.122;2023-04-10T22:38:58;99472.30;;;7.72;94.19
62703;BME280;66022;50.448;18.122;2023-04-10T22:43:12;99466.80;;;7.69;92.92
62703;BME280;66022;50.448;18.122;2023-04-10T22:47:26;99461.63;;;7.66;95.51
62703;BME280;66022;50.448;18.122;2023-04-10T22:51:40;99459.33;;;7.64;93.25
62703;BME280;66022;50.448;18.122;2023-04-10T22:55:54;99455.59;;;7.58;94.52
62703;BME280;66022;50.448;18.122;2023-04-10T23:00:09;99450.45;;;7.52;92.43
62703;BME280;66022;50.448;18.122;2023-04-10T23:04:22;99444.31;;;7.43;93.26
62703;BME280;66022;50.448;18.122;2023-04-10T23:08:36;99437.48;;;7.29;94.70